createdAt,value
2022-12-03T00:03:35.731Z,41.29
2022-12-03T00:08:39.240Z,41.62
2022-12-03T00:13:42.620Z,41.25
2022-12-03T00:18:46.016Z,41.13
2022-12-03T00:23:49.470Z,41.04
2022-12-03T00:28:54.704Z,41.25
2022-12-03T00:33:58.117Z,41.38
2022-12-03T00:39:01.532Z,41.26
2022-12-03T00:44:04.993Z,41.30
2022-12-03T00:49:08.508Z,41.51
2022-12-03T00:54:11.870Z,41.42
2022-12-03T00:59:15.279Z,41.16
2022-12-03T01:04:18.764Z,41.34
2022-12-03T01:09:22.212Z,41.32
2022-12-03T01:14:25.671Z,41.33
2022-12-03T01:19:29.031Z,41.32
2022-12-03T01:24:32.445Z,41.25
2022-12-03T01:29:35.854Z,41.52
2022-12-03T01:34:39.229Z,41.07
2022-12-03T01:39:42.636Z,41.23
2022-12-03T01:44:46.092Z,41.23
2022-12-03T01:49:49.474Z,41.20
2022-12-03T01:54:53.373Z,41.33
2022-12-03T01:59:56.986Z,41.25
2022-12-03T02:05:00.821Z,41.39
2022-12-03T02:10:04.273Z,41.32
2022-12-03T02:15:07.664Z,41.55
2022-12-03T02:20:11.235Z,41.34
2022-12-03T02:25:14.696Z,41.32
2022-12-03T02:30:18.169Z,41.24
2022-12-03T02:35:21.730Z,41.23
2022-12-03T02:40:25.185Z,41.39
2022-12-03T02:45:28.544Z,41.51
2022-12-03T02:50:31.955Z,41.55
2022-12-03T02:55:37.285Z,41.57
2022-12-03T03:00:41.017Z,41.36
2022-12-03T03:05:44.402Z,41.65
2022-12-03T03:10:47.803Z,41.25
2022-12-03T03:15:51.164Z,41.54
2022-12-03T03:20:54.681Z,41.34
2022-12-03T03:25:58.078Z,41.40
2022-12-03T03:31:01.631Z,41.49
2022-12-03T03:36:04.988Z,41.57
2022-12-03T03:41:08.364Z,41.39
2022-12-03T03:46:11.863Z,41.42
2022-12-03T03:51:15.289Z,41.59
2022-12-03T03:56:18.705Z,41.49
2022-12-03T04:01:22.200Z,41.62
2022-12-03T04:06:25.608Z,41.43
2022-12-03T04:11:46.696Z,41.45
2022-12-03T04:16:50.170Z,41.69
2022-12-03T04:22:11.162Z,41.47
2022-12-03T04:27:32.125Z,41.49
2022-12-03T04:32:53.296Z,41.61
2022-12-03T04:37:56.692Z,41.79
2022-12-03T04:43:00.115Z,41.58
2022-12-03T04:48:03.517Z,41.47
2022-12-03T04:53:06.892Z,41.67
2022-12-03T04:58:10.397Z,41.82
2022-12-03T05:03:13.784Z,41.88
2022-12-03T05:08:17.278Z,41.73
2022-12-03T05:13:20.711Z,41.80
2022-12-03T05:18:24.120Z,41.85
2022-12-03T05:23:27.686Z,41.85
2022-12-03T05:28:31.120Z,41.76
2022-12-03T05:33:37.266Z,42.00
2022-12-03T05:38:42.925Z,41.92
2022-12-03T05:43:46.353Z,41.75
2022-12-03T05:48:49.743Z,42.06
2022-12-03T05:53:53.303Z,42.04
2022-12-03T05:58:56.724Z,42.25
2022-12-03T06:04:00.187Z,42.35
2022-12-03T06:09:03.730Z,42.45
2022-12-03T06:14:07.154Z,42.47
2022-12-03T06:19:10.576Z,42.50
2022-12-03T06:24:13.977Z,42.44
2022-12-03T06:29:17.330Z,42.52
2022-12-03T06:34:20.694Z,42.52
2022-12-03T06:39:24.104Z,42.52
2022-12-03T06:44:27.538Z,42.63
2022-12-03T06:49:30.985Z,42.54
2022-12-03T06:54:34.352Z,42.82
2022-12-03T06:59:38.007Z,43.32
2022-12-03T07:04:52.770Z,43.10
2022-12-03T07:09:56.353Z,43.71
2022-12-03T07:14:59.773Z,44.33
2022-12-03T07:20:04.545Z,43.96
2022-12-03T07:25:07.945Z,43.76
2022-12-03T07:30:11.515Z,43.34
2022-12-03T07:35:14.935Z,42.98
2022-12-03T07:40:18.479Z,43.09
2022-12-03T07:45:21.913Z,43.24
2022-12-03T07:50:28.115Z,43.27
2022-12-03T07:55:31.494Z,43.31
2022-12-03T08:00:34.928Z,43.26
2022-12-03T08:05:38.375Z,43.49
2022-12-03T08:10:41.787Z,43.72
2022-12-03T08:15:45.173Z,43.67
2022-12-03T08:20:48.850Z,43.63
2022-12-03T08:25:52.223Z,43.88
2022-12-03T08:30:55.636Z,44.39
2022-12-03T08:35:59.096Z,44.22
2022-12-03T08:41:02.581Z,44.11
2022-12-03T08:51:27.149Z,44.19
2022-12-03T09:01:51.642Z,44.45
2022-12-03T09:06:55.251Z,44.37
2022-12-03T09:11:58.653Z,44.35
2022-12-03T09:17:02.441Z,44.22
2022-12-03T09:22:05.948Z,44.13
2022-12-03T09:27:09.328Z,44.11
2022-12-03T09:32:18.159Z,44.00
2022-12-03T09:37:22.366Z,44.13
2022-12-03T09:42:25.775Z,44.26
2022-12-03T09:47:29.387Z,44.41
2022-12-03T09:52:33.897Z,44.35
2022-12-03T09:57:37.476Z,44.72
2022-12-03T10:02:40.878Z,44.82
2022-12-03T10:07:44.396Z,44.91
2022-12-03T10:12:47.937Z,45.34
2022-12-03T10:17:51.448Z,45.75
2022-12-03T10:22:55.035Z,45.09
2022-12-03T10:27:58.765Z,44.71
2022-12-03T10:33:02.777Z,44.47
2022-12-03T10:38:06.353Z,44.32
2022-12-03T10:43:09.765Z,44.24
2022-12-03T10:48:13.172Z,44.53
2022-12-03T10:53:16.520Z,44.44
2022-12-03T10:58:19.985Z,44.72
2022-12-03T11:03:23.593Z,44.40
2022-12-03T11:08:27.087Z,47.56
2022-12-03T11:13:30.562Z,46.57
2022-12-03T11:18:34.054Z,45.07
2022-12-03T11:23:37.594Z,44.39
2022-12-03T11:28:41.146Z,43.89
2022-12-03T11:33:44.665Z,43.77
2022-12-03T11:38:53.005Z,43.56
2022-12-03T11:44:01.733Z,43.39
2022-12-03T11:49:05.229Z,43.79
2022-12-03T11:54:08.682Z,43.58
2022-12-03T11:59:12.519Z,42.66
2022-12-03T12:04:16.037Z,42.88
2022-12-03T12:09:19.655Z,44.61
2022-12-03T12:14:23.159Z,43.87
2022-12-03T12:30:16.648Z,45.26
2022-12-03T12:35:37.085Z,45.49
2022-12-03T12:40:45.745Z,45.39
2022-12-03T12:45:49.242Z,45.40
2022-12-03T12:50:52.757Z,46.02
2022-12-03T12:55:57.391Z,45.31
2022-12-03T13:01:23.770Z,45.61
2022-12-03T13:06:45.584Z,45.36
2022-12-03T13:11:58.134Z,45.30
2022-12-03T13:17:01.747Z,45.84
2022-12-03T13:27:45.079Z,45.82
2022-12-03T13:32:48.677Z,45.35
2022-12-03T13:37:52.296Z,45.62
2022-12-03T13:42:55.783Z,46.60
2022-12-03T13:53:23.018Z,46.58
2022-12-03T13:58:26.556Z,46.30
2022-12-03T14:03:30.009Z,46.51
2022-12-03T14:08:33.512Z,45.41
2022-12-03T14:13:37.023Z,45.78
2022-12-03T14:18:41.438Z,45.30
2022-12-03T14:23:44.837Z,46.47
2022-12-03T14:28:48.249Z,45.69
2022-12-03T14:33:55.341Z,45.52
2022-12-03T14:39:05.467Z,46.64
2022-12-03T14:44:26.644Z,47.50
2022-12-03T14:49:30.022Z,47.12
2022-12-03T14:54:33.579Z,45.62
2022-12-03T14:59:36.942Z,47.16
2022-12-03T15:04:40.286Z,48.19
2022-12-03T15:09:43.654Z,47.65
2022-12-03T15:14:51.364Z,48.22
2022-12-03T15:20:07.273Z,48.02
2022-12-03T15:25:10.669Z,46.72
2022-12-03T15:30:14.061Z,47.20
2022-12-03T15:35:18.696Z,46.86
2022-12-03T15:45:43.090Z,45.61
2022-12-03T15:50:46.579Z,45.48
2022-12-03T15:55:50.022Z,45.86
2022-12-03T16:00:53.439Z,45.48
2022-12-03T16:05:56.923Z,45.58
2022-12-03T16:11:00.373Z,45.96
2022-12-03T16:16:06.370Z,45.09
2022-12-03T16:21:10.053Z,45.08
2022-12-03T16:26:13.513Z,45.49
2022-12-03T16:31:18.938Z,45.74
2022-12-03T16:36:22.520Z,45.62
2022-12-03T16:41:26.355Z,45.47
2022-12-03T16:46:33.169Z,49.60
2022-12-03T16:51:36.591Z,46.32
2022-12-03T17:02:01.451Z,45.80
2022-12-03T17:07:04.892Z,45.48
2022-12-03T17:12:08.313Z,45.93
2022-12-03T17:17:11.695Z,46.09
2022-12-03T17:22:15.092Z,46.34
2022-12-03T17:27:18.501Z,46.58
2022-12-03T17:32:21.885Z,46.58
2022-12-03T17:37:25.269Z,46.36
2022-12-03T17:42:28.642Z,45.68
2022-12-03T17:47:32.117Z,46.11
2022-12-03T17:52:35.579Z,45.97
2022-12-03T17:57:39.027Z,46.07
2022-12-03T18:02:42.398Z,45.83
2022-12-03T18:07:45.916Z,45.81
2022-12-03T18:12:49.348Z,45.98
2022-12-03T18:17:52.841Z,46.52
2022-12-03T18:22:56.232Z,46.34
2022-12-03T18:27:59.645Z,46.32
2022-12-03T18:33:03.017Z,46.85
2022-12-03T18:38:06.441Z,46.59
2022-12-03T18:43:09.957Z,47.12
2022-12-03T18:48:13.678Z,47.27
2022-12-03T18:53:17.062Z,47.47
2022-12-03T18:58:20.418Z,48.46
2022-12-03T19:03:23.852Z,48.41
2022-12-03T19:08:27.427Z,48.30
2022-12-03T19:13:30.766Z,47.99
2022-12-03T19:18:34.196Z,47.35
2022-12-03T19:23:37.562Z,47.74
2022-12-03T19:28:40.907Z,48.26
2022-12-03T19:33:44.333Z,47.87
2022-12-03T19:38:50.770Z,47.88
2022-12-03T19:43:58.528Z,47.91
2022-12-03T19:49:03.133Z,47.74
2022-12-03T19:54:06.523Z,47.65
2022-12-03T19:59:10.043Z,47.25
2022-12-03T20:04:13.557Z,46.99
2022-12-03T20:09:17.719Z,46.76
2022-12-03T20:14:21.256Z,46.61
2022-12-03T20:19:24.657Z,46.82
2022-12-03T20:24:28.153Z,46.51
2022-12-03T20:29:31.560Z,46.18
2022-12-03T20:34:35.907Z,45.80
2022-12-03T20:39:39.341Z,46.07
2022-12-03T20:44:42.780Z,45.86
2022-12-03T20:49:46.232Z,45.51
2022-12-03T20:54:49.708Z,45.59
2022-12-03T20:59:53.448Z,45.48
2022-12-03T21:04:57.145Z,45.16
2022-12-03T21:10:00.641Z,45.44
2022-12-03T21:15:04.162Z,45.12
2022-12-03T21:20:07.531Z,44.98
2022-12-03T21:25:11.006Z,45.02
2022-12-03T21:30:14.372Z,44.88
2022-12-03T21:35:18.459Z,45.06
2022-12-03T21:40:21.826Z,44.94
2022-12-03T21:45:26.242Z,45.08
2022-12-03T21:50:29.629Z,44.96
2022-12-03T21:55:33.051Z,44.80
2022-12-03T22:00:36.556Z,44.66
2022-12-03T22:05:40.058Z,44.91
2022-12-03T22:10:43.495Z,44.55
2022-12-03T22:15:46.953Z,44.58
2022-12-03T22:20:50.410Z,44.41
2022-12-03T22:25:53.840Z,44.41
2022-12-03T22:30:57.367Z,44.25
2022-12-03T22:36:00.970Z,44.39
2022-12-03T22:41:04.419Z,44.20
2022-12-03T22:46:08.904Z,44.01
2022-12-03T22:51:12.327Z,44.16
2022-12-03T22:56:17.135Z,44.14
2022-12-03T23:01:20.535Z,43.80
2022-12-03T23:06:23.980Z,44.01
2022-12-03T23:11:27.348Z,43.94
2022-12-03T23:16:30.732Z,44.24
2022-12-03T23:21:34.136Z,44.02
2022-12-03T23:26:37.543Z,44.39
2022-12-03T23:31:41.015Z,43.98
2022-12-03T23:36:44.429Z,44.06
2022-12-03T23:41:47.944Z,44.17
2022-12-03T23:46:51.414Z,44.02
2022-12-03T23:51:54.878Z,44.15
2022-12-03T23:56:58.280Z,44.09
